PIMOHWEATHER Station Historical Data
 
Daily Summary for April 17, 2021 Units:  Metric    English   Both
Daily Weekly Monthly Yearly
  Current: High: Low: Average:
Temperature: 30.2 °C 34.6 °C 26.8 °C 30.2 °C
Dew Point: 23.9 °C 24.4 °C 20.1 °C 22.2 °C
Humidity: 69% 70% 48% 63%
Wind Speed: 15km/h 39km/h 0km/h 14.7km/h
Wind Gust: 20km/h 53km/h - -
WindSW - - SE
Pressure: 1011.3 hPa 1015.1 hPa 1009.9 hPa -
Precipitation: 0.00 mm      
 
 
Tabular Data for April 17, 2021
Time Temperature Dew Point Pressure Wind Wind Speed Wind Gust Humidity Rainfall Rate (Hourly) solar
00:04 28.9 °C 20.1 °C 1014.0 hPa Calm     59% 0.00 mm 0.00 W/m2
00:09 28.7 °C 20.2 °C 1013.9 hPa Calm   4 km/h 60% 0.00 mm 0.00 W/m2
00:14 28.7 °C 20.2 °C 1014.1 hPa Calm     60% 0.00 mm 0.00 W/m2
00:19 28.7 °C 20.2 °C 1014.0 hPa NNW 1 km/h 4 km/h 60% 0.00 mm 0.00 W/m2
00:24 28.7 °C 20.2 °C 1013.8 hPa Calm     60% 0.00 mm 0.00 W/m2
00:29 28.7 °C 20.2 °C 1013.8 hPa North 3 km/h 4 km/h 60% 0.00 mm 0.00 W/m2
00:34 28.6 °C 20.1 °C 1013.8 hPa NNE 3 km/h 4 km/h 60% 0.00 mm 0.00 W/m2
00:39 28.6 °C 20.1 °C 1013.8 hPa North 2 km/h 4 km/h 60% 0.00 mm 0.00 W/m2
00:44 28.5 °C 20.5 °C 1013.9 hPa North 4 km/h 4 km/h 62% 0.00 mm 0.00 W/m2
00:49 28.5 °C 20.5 °C 1013.6 hPa North 6 km/h 8 km/h 62% 0.00 mm 0.00 W/m2
00:54 28.3 °C 20.3 °C 1013.5 hPa North 6 km/h 12 km/h 62% 0.00 mm 0.00 W/m2
00:59 28.3 °C 20.3 °C 1013.4 hPa North 6 km/h 8 km/h 62% 0.00 mm 0.00 W/m2
01:04 28.3 °C 20.5 °C 1013.4 hPa North 3 km/h 4 km/h 63% 0.00 mm 0.00 W/m2
01:09 28.2 °C 20.5 °C 1013.3 hPa North 4 km/h 4 km/h 63% 0.00 mm 0.00 W/m2
01:14 28.2 °C 20.2 °C 1013.3 hPa NE 4 km/h 4 km/h 62% 0.00 mm 0.00 W/m2
01:19 28.2 °C 20.5 °C 1013.3 hPa North 5 km/h 8 km/h 63% 0.00 mm 0.00 W/m2
01:24 28.2 °C 20.5 °C 1013.1 hPa NNW 7 km/h 8 km/h 63% 0.00 mm 0.00 W/m2
01:29 28.1 °C 20.4 °C 1013.1 hPa North 4 km/h 8 km/h 63% 0.00 mm 0.00 W/m2
01:34 28.1 °C 20.4 °C 1013.2 hPa North 4 km/h 4 km/h 63% 0.00 mm 0.00 W/m2
01:39 28.1 °C 20.7 °C 1013.2 hPa North 5 km/h 8 km/h 64% 0.00 mm 0.00 W/m2
01:44 28.0 °C 20.6 °C 1013.2 hPa North 5 km/h 8 km/h 64% 0.00 mm 0.00 W/m2
01:49 28.0 °C 20.3 °C 1013.0 hPa North 6 km/h 8 km/h 63% 0.00 mm 0.00 W/m2
01:54 28.0 °C 20.6 °C 1012.9 hPa North 10 km/h 12 km/h 64% 0.00 mm 0.00 W/m2
01:59 28.0 °C 20.8 °C 1012.9 hPa North 7 km/h 12 km/h 65% 0.00 mm 0.00 W/m2
02:04 27.9 °C 20.7 °C 1013.0 hPa North 7 km/h 12 km/h 65% 0.00 mm 0.00 W/m2
02:09 27.9 °C 20.7 °C 1012.9 hPa North 11 km/h 12 km/h 65% 0.00 mm 0.00 W/m2
02:14 27.8 °C 20.9 °C 1013.0 hPa North 9 km/h 12 km/h 66% 0.00 mm 0.00 W/m2
02:19 27.7 °C 20.8 °C 1013.0 hPa North 8 km/h 8 km/h 66% 0.00 mm 0.00 W/m2
02:24 27.7 °C 20.8 °C 1013.0 hPa NNW 5 km/h 8 km/h 66% 0.00 mm 0.00 W/m2
02:29 27.7 °C 20.8 °C 1012.9 hPa North 9 km/h 12 km/h 66% 0.00 mm 0.00 W/m2
02:34 27.6 °C 20.9 °C 1012.9 hPa North 10 km/h 16 km/h 67% 0.00 mm 0.00 W/m2
02:39 27.5 °C 20.8 °C 1012.9 hPa NNE 6 km/h 8 km/h 67% 0.00 mm 0.00 W/m2
02:44 27.5 °C 20.8 °C 1012.9 hPa NNE 8 km/h 8 km/h 67% 0.00 mm 0.00 W/m2
02:49 27.5 °C 20.8 °C 1013.0 hPa North 13 km/h 16 km/h 67% 0.00 mm 0.00 W/m2
02:54 27.5 °C 20.8 °C 1012.9 hPa NNE 8 km/h 12 km/h 67% 0.00 mm 0.00 W/m2
02:59 27.5 °C 20.8 °C 1012.8 hPa North 8 km/h 8 km/h 67% 0.00 mm 0.00 W/m2
03:04 27.5 °C 21.0 °C 1012.8 hPa North 7 km/h 8 km/h 68% 0.00 mm 0.00 W/m2
03:09 27.4 °C 21.0 °C 1012.8 hPa North 3 km/h 8 km/h 68% 0.00 mm 0.00 W/m2
03:14 27.4 °C 21.0 °C 1012.7 hPa North 7 km/h 12 km/h 68% 0.00 mm 0.00 W/m2
03:19 27.4 °C 21.0 °C 1012.7 hPa North 3 km/h 4 km/h 68% 0.00 mm 0.00 W/m2
03:24 27.3 °C 20.9 °C 1012.7 hPa NNE 7 km/h 12 km/h 68% 0.00 mm 0.00 W/m2
03:29 27.3 °C 20.9 °C 1012.7 hPa NNE 6 km/h 12 km/h 68% 0.00 mm 0.00 W/m2
03:34 27.3 °C 20.9 °C 1012.6 hPa NNE 6 km/h 8 km/h 68% 0.00 mm 0.00 W/m2
03:39 27.2 °C 20.8 °C 1012.8 hPa NNE 4 km/h 4 km/h 68% 0.00 mm 0.00 W/m2
03:44 27.2 °C 20.8 °C 1012.8 hPa NNE 3 km/h 4 km/h 68% 0.00 mm 0.00 W/m2
03:49 27.2 °C 20.8 °C 1012.8 hPa North 4 km/h 8 km/h 68% 0.00 mm 0.00 W/m2
03:54 27.2 °C 20.8 °C 1013.0 hPa North 8 km/h 8 km/h 68% 0.00 mm 0.00 W/m2
03:59 27.2 °C 20.8 °C 1012.8 hPa NE 4 km/h 4 km/h 68% 0.00 mm 0.00 W/m2
04:04 27.2 °C 20.8 °C 1012.7 hPa NE 8 km/h 8 km/h 68% 0.00 mm 0.00 W/m2
04:09 27.1 °C 20.7 °C 1012.8 hPa NE 8 km/h 8 km/h 68% 0.00 mm 0.00 W/m2
04:14 27.1 °C 20.7 °C 1012.9 hPa NE 9 km/h 12 km/h 68% 0.00 mm 0.00 W/m2
04:19 27.1 °C 20.7 °C 1013.0 hPa NNE 7 km/h 12 km/h 68% 0.00 mm 0.00 W/m2
04:24 27.1 °C 20.7 °C 1013.0 hPa North 4 km/h 8 km/h 68% 0.00 mm 0.00 W/m2
04:29 27.1 °C 20.7 °C 1013.0 hPa NNE 4 km/h 8 km/h 68% 0.00 mm 0.00 W/m2
04:34 27.1 °C 20.9 °C 1013.0 hPa NNE 6 km/h 8 km/h 69% 0.00 mm 0.00 W/m2
04:39 27.1 °C 20.9 °C 1013.0 hPa North 6 km/h 8 km/h 69% 0.00 mm 0.00 W/m2
04:44 27.1 °C 20.9 °C 1013.1 hPa NNE 6 km/h 8 km/h 69% 0.00 mm 0.00 W/m2
04:49 27.1 °C 20.9 °C 1013.1 hPa North 7 km/h 12 km/h 69% 0.00 mm 0.00 W/m2
04:54 27.1 °C 20.9 °C 1013.0 hPa North 8 km/h 12 km/h 69% 0.00 mm 0.00 W/m2
04:59 27.0 °C 20.8 °C 1013.2 hPa North 6 km/h 8 km/h 69% 0.00 mm 0.00 W/m2
05:04 27.0 °C 20.8 °C 1013.2 hPa North 8 km/h 12 km/h 69% 0.00 mm 0.00 W/m2
05:09 26.9 °C 20.7 °C 1013.2 hPa North 6 km/h 8 km/h 69% 0.00 mm 0.00 W/m2
05:14 26.9 °C 20.7 °C 1013.2 hPa North 5 km/h 8 km/h 69% 0.00 mm 0.00 W/m2
05:19 26.9 °C 20.7 °C 1013.1 hPa NNE 6 km/h 8 km/h 69% 0.00 mm 0.00 W/m2
05:24 26.9 °C 20.7 °C 1013.3 hPa NE 4 km/h 4 km/h 69% 0.00 mm 0.00 W/m2
05:29 26.9 °C 20.7 °C 1013.3 hPa North 4 km/h 4 km/h 69% 0.00 mm 0.00 W/m2
05:34 26.8 °C 20.9 °C 1013.2 hPa North 1 km/h 4 km/h 70% 0.00 mm 0.00 W/m2
05:39 26.9 °C 20.7 °C 1013.3 hPa NNE 9 km/h 12 km/h 69% 0.00 mm 0.00 W/m2
05:44 26.9 °C 20.7 °C 1013.4 hPa NNE 4 km/h 4 km/h 69% 0.00 mm 1.70 W/m2
05:49 26.9 °C 21.0 °C 1013.5 hPa North 4 km/h 4 km/h 70% 0.00 mm 4.30 W/m2
05:54 26.9 °C 21.0 °C 1013.5 hPa NNW 7 km/h 8 km/h 70% 0.00 mm 9.10 W/m2
05:59 26.9 °C 21.0 °C 1013.5 hPa North 2 km/h 4 km/h 70% 0.00 mm 15.20 W/m2
06:04 26.9 °C 21.0 °C 1013.5 hPa Calm     70% 0.00 mm 20.80 W/m2
06:09 27.1 °C 20.9 °C 1013.7 hPa North 1 km/h 4 km/h 69% 0.00 mm 25.60 W/m2
06:14 27.1 °C 20.9 °C 1013.8 hPa North 4 km/h 4 km/h 69% 0.00 mm 30.70 W/m2
06:19 27.2 °C 21.0 °C 1013.9 hPa NNE 4 km/h 4 km/h 69% 0.00 mm 35.10 W/m2
06:24 27.2 °C 21.0 °C 1013.9 hPa North 5 km/h 8 km/h 69% 0.00 mm 39.00 W/m2
06:29 27.3 °C 21.0 °C 1013.9 hPa North 8 km/h 8 km/h 69% 0.00 mm 43.80 W/m2
06:34 27.3 °C 21.0 °C 1014.0 hPa North 9 km/h 12 km/h 69% 0.00 mm 48.60 W/m2
06:39 27.4 °C 21.0 °C 1014.0 hPa North 4 km/h 4 km/h 69% 0.00 mm 51.10 W/m2
06:44 27.4 °C 21.0 °C 1014.2 hPa North 6 km/h 8 km/h 68% 0.00 mm 55.40 W/m2
06:49 27.4 °C 21.0 °C 1014.2 hPa North 4 km/h 4 km/h 68% 0.00 mm 67.70 W/m2
06:54 27.7 °C 21.1 °C 1014.3 hPa North 5 km/h 8 km/h 68% 0.00 mm 76.30 W/m2
06:59 27.7 °C 21.3 °C 1014.2 hPa North 4 km/h 4 km/h 68% 0.00 mm 79.80 W/m2
07:04 27.9 °C 21.2 °C 1014.2 hPa North 16 km/h 20 km/h 67% 0.00 mm 90.70 W/m2
07:09 27.9 °C 21.4 °C 1014.4 hPa North 14 km/h 16 km/h 68% 0.00 mm 101.10 W/m2
07:14 27.8 °C 21.1 °C 1014.5 hPa North 11 km/h 12 km/h 67% 0.00 mm 111.00 W/m2
07:19 28.0 °C 21.3 °C 1014.4 hPa North 11 km/h 16 km/h 67% 0.00 mm 130.50 W/m2
07:24 28.1 °C 21.2 °C 1014.5 hPa North 11 km/h 12 km/h 66% 0.00 mm 162.20 W/m2
07:29 28.2 °C 21.3 °C 1014.5 hPa NNE 4 km/h 4 km/h 66% 0.00 mm 168.20 W/m2
07:34 28.4 °C 21.3 °C 1014.6 hPa NNE 4 km/h 4 km/h 66% 0.00 mm 188.60 W/m2
07:39 28.5 °C 21.5 °C 1014.5 hPa North 11 km/h 12 km/h 66% 0.00 mm 230.20 W/m2
07:44 29.0 °C 21.7 °C 1014.7 hPa North 10 km/h 12 km/h 65% 0.00 mm 264.60 W/m2
07:49 29.0 °C 21.8 °C 1014.7 hPa North 14 km/h 16 km/h 65% 0.00 mm 280.60 W/m2
07:54 29.3 °C 21.8 °C 1014.7 hPa NNE 11 km/h 12 km/h 64% 0.00 mm 269.40 W/m2
07:59 29.5 °C 22.0 °C 1014.7 hPa NNE 8 km/h 16 km/h 64% 0.00 mm 284.10 W/m2
08:04 29.5 °C 21.9 °C 1014.8 hPa North 13 km/h 20 km/h 64% 0.00 mm 321.40 W/m2
08:09 29.4 °C 21.9 °C 1014.8 hPa North 14 km/h 16 km/h 64% 0.00 mm 343.50 W/m2
08:14 29.8 °C 21.9 °C 1014.9 hPa NE 13 km/h 16 km/h 64% 0.00 mm 377.80 W/m2
08:19 29.8 °C 22.0 °C 1015.1 hPa East 14 km/h 16 km/h 63% 0.00 mm 372.60 W/m2
08:24 29.9 °C 22.1 °C 1015.0 hPa NE 9 km/h 12 km/h 63% 0.00 mm 421.20 W/m2
08:29 29.9 °C 21.8 °C 1015.1 hPa NE 8 km/h 12 km/h 62% 0.00 mm 423.80 W/m2
08:34 30.1 °C 22.0 °C 1015.1 hPa North 12 km/h 20 km/h 62% 0.00 mm 463.60 W/m2
08:39 30.2 °C 21.9 °C 1015.1 hPa North 6 km/h 8 km/h 62% 0.00 mm 450.70 W/m2
08:44 30.7 °C 22.4 °C 1015.0 hPa North 13 km/h 16 km/h 61% 0.00 mm 491.90 W/m2
08:49 30.2 °C 21.9 °C 1015.1 hPa North 11 km/h 12 km/h 61% 0.00 mm 479.70 W/m2
08:54 30.3 °C 22.0 °C 1015.0 hPa North 24 km/h 28 km/h 61% 0.00 mm 481.00 W/m2
08:59 30.8 °C 21.9 °C 1014.9 hPa NE 11 km/h 12 km/h 61% 0.00 mm 546.60 W/m2
09:04 31.0 °C 22.1 °C 1015.0 hPa North 8 km/h 8 km/h 59% 0.00 mm 536.10 W/m2
09:09 31.2 °C 22.3 °C 1014.8 hPa North 16 km/h 20 km/h 59% 0.00 mm 527.00 W/m2
09:14 31.3 °C 22.4 °C 1014.7 hPa NNW 22 km/h 28 km/h 60% 0.00 mm 553.50 W/m2
09:19 30.8 °C 22.2 °C 1014.8 hPa NNE 25 km/h 36 km/h 60% 0.00 mm 542.20 W/m2
09:24 31.0 °C 22.1 °C 1014.8 hPa North 20 km/h 28 km/h 60% 0.00 mm 509.30 W/m2
09:29 31.1 °C 22.2 °C 1014.8 hPa NNW 12 km/h 16 km/h 59% 0.00 mm 546.10 W/m2
09:34 31.7 °C 22.2 °C 1014.7 hPa North 17 km/h 20 km/h 59% 0.00 mm 588.70 W/m2
09:39 31.7 °C 22.4 °C 1014.6 hPa NNE 23 km/h 32 km/h 58% 0.00 mm 557.80 W/m2
09:44 31.8 °C 22.3 °C 1014.8 hPa North 12 km/h 20 km/h 57% 0.00 mm 545.30 W/m2
09:49 31.9 °C 22.3 °C 1014.9 hPa NE 12 km/h 20 km/h 57% 0.00 mm 570.80 W/m2
09:54 32.2 °C 22.2 °C 1014.7 hPa NNE 14 km/h 20 km/h 56% 0.00 mm 558.70 W/m2
09:59 32.2 °C 22.3 °C 1014.6 hPa North 11 km/h 12 km/h 56% 0.00 mm 527.00 W/m2
10:04 32.1 °C 22.2 °C 1014.6 hPa NE 29 km/h 36 km/h 56% 0.00 mm 550.90 W/m2
10:09 32.4 °C 22.2 °C 1014.6 hPa NNE 22 km/h 28 km/h 55% 0.00 mm 568.30 W/m2
10:14 32.3 °C 22.1 °C 1014.5 hPa NE 23 km/h 32 km/h 55% 0.00 mm 621.60 W/m2
10:19 32.5 °C 22.3 °C 1014.5 hPa East 29 km/h 36 km/h 56% 0.00 mm 624.20 W/m2
10:24 32.8 °C 22.2 °C 1014.4 hPa NNE 20 km/h 24 km/h 54% 0.00 mm 481.50 W/m2
10:29 32.8 °C 21.4 °C 1014.4 hPa NNE 20 km/h 36 km/h 51% 0.00 mm 693.20 W/m2
10:34 33.1 °C 21.4 °C 1014.4 hPa North 27 km/h 36 km/h 51% 0.00 mm 657.20 W/m2
10:39 33.2 °C 21.1 °C 1014.4 hPa NE 27 km/h 32 km/h 49% 0.00 mm 656.70 W/m2
10:44 33.1 °C 21.0 °C 1014.3 hPa ENE 26 km/h 28 km/h 49% 0.00 mm 581.20 W/m2
10:49 33.2 °C 21.3 °C 1014.3 hPa North 19 km/h 24 km/h 50% 0.00 mm 547.80 W/m2
10:54 33.0 °C 21.6 °C 1014.2 hPa North 34 km/h 40 km/h 52% 0.00 mm 487.10 W/m2
10:59 33.0 °C 21.9 °C 1014.3 hPa North 25 km/h 28 km/h 52% 0.00 mm 464.10 W/m2
11:04 33.1 °C 22.1 °C 1014.2 hPa NNE 16 km/h 24 km/h 53% 0.00 mm 479.30 W/m2
11:09 32.7 °C 22.1 °C 1014.2 hPa NNE 16 km/h 20 km/h 54% 0.00 mm 446.80 W/m2
11:14 32.8 °C 22.2 °C 1014.2 hPa North 17 km/h 32 km/h 54% 0.00 mm 459.40 W/m2
11:19 32.9 °C 22.0 °C 1014.0 hPa North 19 km/h 20 km/h 53% 0.00 mm 507.90 W/m2
11:24 33.2 °C 22.1 °C 1014.1 hPa NNE 16 km/h 16 km/h 52% 0.00 mm 504.90 W/m2
11:29 33.3 °C 22.2 °C 1013.9 hPa NNE 12 km/h 16 km/h 52% 0.00 mm 509.30 W/m2
11:34 33.5 °C 21.8 °C 1013.9 hPa North 19 km/h 24 km/h 51% 0.00 mm 610.30 W/m2
11:39 34.6 °C 21.8 °C 1013.8 hPa NW 13 km/h 16 km/h 48% 0.00 mm 633.70 W/m2
11:44 34.6 °C 22.2 °C 1013.8 hPa West 11 km/h 16 km/h 49% 0.00 mm 621.60 W/m2
11:49 34.1 °C 23.5 °C 1013.7 hPa WSW 13 km/h 16 km/h 55% 0.00 mm 616.50 W/m2
11:54 33.6 °C 23.3 °C 1013.5 hPa NW 16 km/h 20 km/h 55% 0.00 mm 668.90 W/m2
11:59 33.6 °C 23.0 °C 1013.4 hPa North 19 km/h 28 km/h 54% 0.00 mm 728.30 W/m2
12:04 33.4 °C 23.5 °C 1013.2 hPa WSW 18 km/h 24 km/h 56% 0.00 mm 702.70 W/m2
12:09 33.6 °C 24.2 °C 1013.1 hPa West 24 km/h 28 km/h 58% 0.00 mm 489.70 W/m2
12:14 33.5 °C 22.9 °C 1013.1 hPa North 14 km/h 20 km/h 54% 0.00 mm 631.10 W/m2
12:19 33.6 °C 23.9 °C 1013.1 hPa North 23 km/h 32 km/h 57% 0.00 mm 627.20 W/m2
12:24 33.6 °C 23.8 °C 1012.9 hPa NNE 19 km/h 28 km/h 57% 0.00 mm 643.20 W/m2
12:29 33.6 °C 24.4 °C 1012.7 hPa WSW 24 km/h 32 km/h 59% 0.00 mm 615.50 W/m2
12:34 33.5 °C 24.4 °C 1012.7 hPa WNW 18 km/h 28 km/h 59% 0.00 mm 596.90 W/m2
12:39 33.1 °C 24.3 °C 1012.5 hPa West 14 km/h 20 km/h 60% 0.00 mm 630.30 W/m2
12:44 33.3 °C 24.2 °C 1012.6 hPa SW 26 km/h 36 km/h 59% 0.00 mm 632.00 W/m2
12:49 33.1 °C 24.3 °C 1012.5 hPa SW 26 km/h 32 km/h 60% 0.00 mm 517.00 W/m2
12:54 32.8 °C 24.2 °C 1012.4 hPa SW 24 km/h 28 km/h 61% 0.00 mm 587.70 W/m2
12:59 32.4 °C 24.2 °C 1012.3 hPa SW 36 km/h 48 km/h 62% 0.00 mm 573.00 W/m2
13:04 31.9 °C 23.6 °C 1012.3 hPa SW 29 km/h 36 km/h 62% 0.00 mm 525.30 W/m2
13:09 31.9 °C 23.4 °C 1012.2 hPa SW 24 km/h 32 km/h 61% 0.00 mm 461.60 W/m2
13:14 31.9 °C 23.7 °C 1012.0 hPa SSW 27 km/h 40 km/h 62% 0.00 mm 446.80 W/m2
13:19 32.0 °C 23.8 °C 1012.3 hPa SW 28 km/h 36 km/h 62% 0.00 mm 439.80 W/m2
13:24 32.1 °C 23.8 °C 1011.9 hPa SW 24 km/h 36 km/h 62% 0.00 mm 479.70 W/m2
13:29 32.5 °C 23.9 °C 1011.9 hPa SW 30 km/h 36 km/h 61% 0.00 mm 465.00 W/m2
13:34 32.5 °C 24.1 °C 1012.0 hPa SSW 25 km/h 32 km/h 62% 0.00 mm 240.30 W/m2
13:39 32.0 °C 23.9 °C 1012.0 hPa SW 26 km/h 40 km/h 63% 0.00 mm 275.00 W/m2
13:44 31.8 °C 23.9 °C 1011.6 hPa SW 22 km/h 28 km/h 63% 0.00 mm 271.10 W/m2
13:49 31.8 °C 23.6 °C 1011.6 hPa SW 21 km/h 28 km/h 62% 0.00 mm 219.50 W/m2
13:54 31.8 °C 23.6 °C 1011.6 hPa SW 22 km/h 28 km/h 62% 0.00 mm 321.40 W/m2
13:59 32.0 °C 23.5 °C 1011.5 hPa SW 24 km/h 28 km/h 61% 0.00 mm 331.40 W/m2
14:04 32.2 °C 23.3 °C 1011.3 hPa SW 21 km/h 28 km/h 60% 0.00 mm 288.00 W/m2
14:09 32.2 °C 23.5 °C 1011.3 hPa SW 23 km/h 28 km/h 60% 0.00 mm 451.00 W/m2
14:14 32.1 °C 23.7 °C 1011.2 hPa SW 27 km/h 32 km/h 61% 0.00 mm 467.20 W/m2
14:19 32.2 °C 23.7 °C 1011.2 hPa SW 27 km/h 36 km/h 61% 0.00 mm 534.40 W/m2
14:24 32.9 °C 23.6 °C 1011.0 hPa WSW 22 km/h 28 km/h 60% 0.00 mm 527.90 W/m2
14:29 32.9 °C 23.9 °C 1010.9 hPa SW 24 km/h 28 km/h 59% 0.00 mm 508.40 W/m2
14:34 33.5 °C 23.8 °C 1010.8 hPa WNW 21 km/h 24 km/h 59% 0.00 mm 466.70 W/m2
14:39 33.5 °C 24.1 °C 1010.7 hPa SW 38 km/h 44 km/h 59% 0.00 mm 418.50 W/m2
14:44 33.5 °C 23.7 °C 1010.5 hPa WSW 23 km/h 32 km/h 58% 0.00 mm 433.80 W/m2
14:49 33.7 °C 24.0 °C 1010.6 hPa SW 33 km/h 40 km/h 57% 0.00 mm 407.70 W/m2
14:54 33.3 °C 23.9 °C 1010.6 hPa SW 22 km/h 32 km/h 58% 0.00 mm 436.40 W/m2
14:59 33.2 °C 24.1 °C 1010.5 hPa SW 27 km/h 32 km/h 59% 0.00 mm 457.20 W/m2
15:04 33.0 °C 23.9 °C 1010.6 hPa SW 34 km/h 40 km/h 59% 0.00 mm 431.60 W/m2
15:09 33.3 °C 23.7 °C 1010.4 hPa SSW 25 km/h 36 km/h 58% 0.00 mm 430.70 W/m2
15:14 33.3 °C 23.9 °C 1010.6 hPa SW 38 km/h 44 km/h 58% 0.00 mm 419.50 W/m2
15:19 33.4 °C 23.8 °C 1010.4 hPa SW 27 km/h 40 km/h 58% 0.00 mm 396.00 W/m2
15:24 33.5 °C 24.1 °C 1010.3 hPa SW 27 km/h 32 km/h 58% 0.00 mm 248.90 W/m2
15:29 32.9 °C 23.6 °C 1010.2 hPa SW 18 km/h 24 km/h 59% 0.00 mm 198.70 W/m2
15:34 32.9 °C 23.6 °C 1010.2 hPa SW 27 km/h 32 km/h 59% 0.00 mm 187.80 W/m2
15:39 32.8 °C 23.6 °C 1010.1 hPa SW 25 km/h 28 km/h 59% 0.00 mm 174.80 W/m2
15:44 32.8 °C 23.2 °C 1010.1 hPa WSW 16 km/h 20 km/h 57% 0.00 mm 155.70 W/m2
15:49 33.0 °C 23.3 °C 1009.9 hPa SW 24 km/h 28 km/h 57% 0.00 mm 147.40 W/m2
15:54 32.8 °C 23.1 °C 1010.1 hPa SW 24 km/h 32 km/h 57% 0.00 mm 137.90 W/m2
15:59 32.6 °C 23.5 °C 1010.0 hPa SSW 22 km/h 32 km/h 59% 0.00 mm 130.00 W/m2
16:04 32.4 °C 23.7 °C 1009.9 hPa SW 32 km/h 36 km/h 61% 0.00 mm 124.90 W/m2
16:09 32.2 °C 23.8 °C 1009.9 hPa SW 23 km/h 28 km/h 61% 0.00 mm 119.30 W/m2
16:14 32.2 °C 24.2 °C 1010.1 hPa SW 39 km/h 53 km/h 64% 0.00 mm 113.70 W/m2
16:19 31.7 °C 24.1 °C 1010.0 hPa SW 31 km/h 44 km/h 65% 0.00 mm 111.80 W/m2
16:24 31.2 °C 23.9 °C 1010.0 hPa SSW 28 km/h 36 km/h 65% 0.00 mm 110.60 W/m2
16:29 31.3 °C 24.1 °C 1010.1 hPa SW 22 km/h 36 km/h 66% 0.00 mm 107.50 W/m2
16:34 31.7 °C 24.1 °C 1010.3 hPa SSW 23 km/h 32 km/h 65% 0.00 mm 97.50 W/m2
16:39 31.7 °C 24.1 °C 1010.3 hPa SW 18 km/h 24 km/h 64% 0.00 mm 80.60 W/m2
16:44 31.7 °C 24.1 °C 1010.2 hPa SW 32 km/h 36 km/h 65% 0.00 mm 65.40 W/m2
16:49 31.3 °C 24.0 °C 1010.2 hPa SW 20 km/h 28 km/h 65% 0.00 mm 49.40 W/m2
16:54 31.3 °C 24.0 °C 1010.2 hPa SW 23 km/h 32 km/h 65% 0.00 mm 40.70 W/m2
16:59 31.2 °C 24.1 °C 1010.2 hPa SW 27 km/h 36 km/h 66% 0.00 mm 33.80 W/m2
17:04 30.9 °C 24.0 °C 1010.3 hPa SW 17 km/h 24 km/h 67% 0.00 mm 28.10 W/m2
17:09 31.0 °C 24.4 °C 1010.2 hPa SW 28 km/h 40 km/h 68% 0.00 mm 25.90 W/m2
17:14 30.6 °C 24.0 °C 1010.2 hPa SW 23 km/h 24 km/h 68% 0.00 mm 25.60 W/m2
17:19 30.6 °C 24.1 °C 1010.5 hPa SSW 21 km/h 28 km/h 68% 0.00 mm 25.90 W/m2
17:24 30.6 °C 24.1 °C 1010.5 hPa SSW 19 km/h 28 km/h 68% 0.00 mm 26.40 W/m2
17:29 30.6 °C 24.1 °C 1010.4 hPa SW 28 km/h 36 km/h 68% 0.00 mm 26.40 W/m2
17:34 30.6 °C 24.2 °C 1010.6 hPa SW 19 km/h 24 km/h 69% 0.00 mm 25.90 W/m2
17:39 30.6 °C 24.1 °C 1010.6 hPa SW 16 km/h 20 km/h 68% 0.00 mm 22.00 W/m2
17:44 30.5 °C 24.2 °C 1010.7 hPa SSW 20 km/h 28 km/h 69% 0.00 mm 16.90 W/m2
17:49 30.4 °C 24.3 °C 1010.9 hPa SW 25 km/h 36 km/h 70% 0.00 mm 11.30 W/m2
17:54 30.2 °C 24.1 °C 1010.9 hPa WSW 18 km/h 24 km/h 70% 0.00 mm 6.50 W/m2
17:59 30.3 °C 24.2 °C 1010.9 hPa SW 19 km/h 24 km/h 70% 0.00 mm 3.80 W/m2
18:04 30.2 °C 24.1 °C 1011.1 hPa SW 20 km/h 28 km/h 70% 0.00 mm 1.70 W/m2
18:09 30.1 °C 24.0 °C 1011.1 hPa SW 25 km/h 28 km/h 70% 0.00 mm 0.90 W/m2
18:14 30.1 °C 23.8 °C 1011.1 hPa SW 15 km/h 20 km/h 69% 0.00 mm 0.00 W/m2
18:19 30.2 °C 23.9 °C 1011.3 hPa SW 15 km/h 20 km/h 69% 0.00 mm 0.00 W/m2
PIMOHWEATHER Philippines
Compliments of Weather Underground - 2 mb